Time;durP1;ratioP1;P1;durP2;ratioP2;P2;SDS_P1;SDS_P2;PMS_P1;PMS_P2;Temp;Humidity;BMP_temperature;BMP_pressure;BME280_temperature;BME280_humidity;BME280_pressure;Samples;Min_cycle;Max_cycle;Signal;HPM_P1;HPM_P2
2023/11/25 00:02:01;;;;;;;7.23;2.40;;;;;;;;;;2611202;54;20441;-75
2023/11/25 00:04:27;;;;;;;8.37;2.50;;;;;;;;;;2610247;47;20423;-75
2023/11/25 00:06:54;;;;;;;4.63;2.30;;;;;;;;;;2609906;39;20642;-74
2023/11/25 00:09:21;;;;;;;9.07;2.73;;;;;;;;;;2609710;54;22376;-75
2023/11/25 00:11:48;;;;;;;3.83;1.97;;;;;;;;;;2609914;54;20407;-75
2023/11/25 00:14:15;;;;;;;2.40;1.80;;;;;;;;;;2611328;54;20427;-77
2023/11/25 00:16:41;;;;;;;4.70;1.87;;;;;;;;;;2611597;54;20406;-76
2023/11/25 00:19:10;;;;;;;9.83;1.80;;;;;;;;;;2611519;54;20418;-76
2023/11/25 00:21:36;;;;;;;2.97;2.13;;;;;;;;;;2612273;39;20628;-78
2023/11/25 00:24:02;;;;;;;6.77;2.27;;;;;;;;;;2611811;54;20450;-76
2023/11/25 00:26:30;;;;;;;9.17;2.37;;;;;;;;;;2612204;54;20438;-76
2023/11/25 00:28:56;;;;;;;15.90;2.87;;;;;;;;;;2612182;54;20413;-77
2023/11/25 00:31:24;;;;;;;3.63;1.97;;;;;;;;;;2613335;54;20463;-76
2023/11/25 00:33:52;;;;;;;7.63;2.10;;;;;;;;;;2612128;54;20498;-78
2023/11/25 00:36:18;;;;;;;12.03;2.40;;;;;;;;;;2612140;54;20980;-76
2023/11/25 00:38:44;;;;;;;4.43;1.87;;;;;;;;;;2611569;46;20457;-76
2023/11/25 00:41:11;;;;;;;12.67;2.83;;;;;;;;;;2612227;54;20472;-77
2023/11/25 00:43:38;;;;;;;2.87;1.77;;;;;;;;;;2611888;47;20433;-77
2023/11/25 00:46:04;;;;;;;7.23;2.17;;;;;;;;;;2612639;54;20434;-76
2023/11/25 00:48:35;;;;;;;2.33;1.77;;;;;;;;;;2612147;54;20462;-74
2023/11/25 00:51:01;;;;;;;3.80;1.60;;;;;;;;;;2610412;54;20398;-75
2023/11/25 00:53:27;;;;;;;4.10;1.63;;;;;;;;;;2610667;54;20396;-75
2023/11/25 00:55:54;;;;;;;3.13;2.17;;;;;;;;;;2611209;54;20399;-75
2023/11/25 00:58:20;;;;;;;5.70;2.13;;;;;;;;;;2610142;47;20418;-75
2023/11/25 01:00:46;;;;;;;4.20;1.60;;;;;;;;;;2610096;54;20378;-76
2023/11/25 01:03:12;;;;;;;2.10;1.43;;;;;;;;;;2610532;54;20399;-74
2023/11/25 01:05:38;;;;;;;6.30;1.50;;;;;;;;;;2611399;54;21156;-76
2023/11/25 01:08:05;;;;;;;8.70;2.20;;;;;;;;;;2612256;39;20840;-76
2023/11/25 01:10:31;;;;;;;4.20;1.93;;;;;;;;;;2612617;31;20894;-76
2023/11/25 01:12:57;;;;;;;6.00;2.53;;;;;;;;;;2612067;54;21077;-78
2023/11/25 01:15:24;;;;;;;6.73;2.57;;;;;;;;;;2611504;54;20427;-77
2023/11/25 01:17:50;;;;;;;3.43;1.80;;;;;;;;;;2612431;54;20453;-77
2023/11/25 01:20:16;;;;;;;13.57;2.50;;;;;;;;;;2612103;39;20779;-77
2023/11/25 01:22:42;;;;;;;7.03;1.80;;;;;;;;;;2612537;54;20428;-77
2023/11/25 01:25:09;;;;;;;5.70;2.93;;;;;;;;;;2612867;39;20818;-76
2023/11/25 01:27:36;;;;;;;8.97;2.10;;;;;;;;;;2611879;54;20411;-77
2023/11/25 01:30:04;;;;;;;9.57;2.70;;;;;;;;;;2611456;54;20415;-76
2023/11/25 01:32:31;;;;;;;7.73;2.53;;;;;;;;;;2612124;54;20957;-76
2023/11/25 01:34:57;;;;;;;9.07;2.07;;;;;;;;;;2612232;54;20416;-77
2023/11/25 01:37:26;;;;;;;5.07;1.90;;;;;;;;;;2611503;47;20415;-77
2023/11/25 01:39:54;;;;;;;4.47;1.70;;;;;;;;;;2612084;54;20411;-77
2023/11/25 01:42:20;;;;;;;16.17;2.80;;;;;;;;;;2612071;47;20479;-78
2023/11/25 01:44:46;;;;;;;5.10;3.80;;;;;;;;;;2612573;54;21056;-76
2023/11/25 01:47:13;;;;;;;8.27;2.57;;;;;;;;;;2611639;54;20398;-77
2023/11/25 01:49:40;;;;;;;9.20;2.63;;;;;;;;;;2611376;54;20423;-78
2023/11/25 01:52:08;;;;;;;7.17;5.50;;;;;;;;;;2611548;54;20402;-77
2023/11/25 01:54:34;;;;;;;9.97;4.10;;;;;;;;;;2611738;46;20433;-77
2023/11/25 01:57:03;;;;;;;4.60;2.93;;;;;;;;;;2611786;54;20412;-76
2023/11/25 01:59:31;;;;;;;7.57;3.70;;;;;;;;;;2611617;54;20404;-76
2023/11/25 02:02:00;;;;;;;9.53;4.00;;;;;;;;;;2612800;54;21007;-76
2023/11/25 02:04:26;;;;;;;6.87;3.00;;;;;;;;;;2612838;47;20527;-78
2023/11/25 02:06:53;;;;;;;7.97;3.80;;;;;;;;;;2613606;54;20412;-77
2023/11/25 02:09:22;;;;;;;10.30;3.87;;;;;;;;;;2612746;54;20401;-77
2023/11/25 02:11:55;;;;;;;9.13;4.77;;;;;;;;;;2613379;54;20463;-77
2023/11/25 02:14:22;;;;;;;6.50;3.93;;;;;;;;;;2613125;54;20940;-75
2023/11/25 02:16:48;;;;;;;9.73;5.23;;;;;;;;;;2612310;39;20612;-74
2023/11/25 02:19:14;;;;;;;13.80;4.30;;;;;;;;;;2611348;47;20445;-76
2023/11/25 02:21:40;;;;;;;8.40;4.60;;;;;;;;;;2611280;54;20415;-75
2023/11/25 02:24:07;;;;;;;15.50;5.90;;;;;;;;;;2612028;54;20398;-75
2023/11/25 02:26:34;;;;;;;23.37;5.73;;;;;;;;;;2612214;46;21026;-75
2023/11/25 02:29:00;;;;;;;8.00;4.90;;;;;;;;;;2611705;54;20390;-74
2023/11/25 02:31:26;;;;;;;19.37;4.40;;;;;;;;;;2611533;46;20430;-75
2023/11/25 02:33:52;;;;;;;11.10;4.67;;;;;;;;;;2611852;54;20441;-73
2023/11/25 02:36:18;;;;;;;18.60;5.23;;;;;;;;;;2612083;54;20435;-76
2023/11/25 02:38:45;;;;;;;6.03;3.57;;;;;;;;;;2612324;39;20750;-75
2023/11/25 02:41:12;;;;;;;7.90;4.60;;;;;;;;;;2612351;47;21169;-75
2023/11/25 02:43:38;;;;;;;9.13;3.50;;;;;;;;;;2612210;54;21057;-75
2023/11/25 02:46:05;;;;;;;6.17;3.20;;;;;;;;;;2612675;54;20414;-75
2023/11/25 02:48:32;;;;;;;6.90;3.50;;;;;;;;;;2612292;54;20430;-75
2023/11/25 02:50:58;;;;;;;9.37;4.40;;;;;;;;;;2612411;54;20403;-73
2023/11/25 02:53:24;;;;;;;9.23;3.63;;;;;;;;;;2612280;54;20382;-75
2023/11/25 02:55:50;;;;;;;6.93;3.70;;;;;;;;;;2611361;47;20407;-73
2023/11/25 02:58:17;;;;;;;8.60;3.77;;;;;;;;;;2611775;47;20421;-75
2023/11/25 03:00:43;;;;;;;8.10;4.43;;;;;;;;;;2612348;54;20383;-73
2023/11/25 03:03:16;;;;;;;12.90;3.23;;;;;;;;;;2612380;54;20929;-75
2023/11/25 03:05:45;;;;;;;9.90;4.30;;;;;;;;;;2612620;54;20432;-74
2023/11/25 03:08:16;;;;;;;6.40;3.30;;;;;;;;;;2612152;54;20410;-74
2023/11/25 03:10:42;;;;;;;13.80;3.83;;;;;;;;;;2612496;54;20450;-76
2023/11/25 03:13:11;;;;;;;12.37;4.37;;;;;;;;;;2612187;31;20878;-74
2023/11/25 03:15:38;;;;;;;13.20;4.13;;;;;;;;;;2611080;54;20501;-75
2023/11/25 03:18:07;;;;;;;10.80;5.00;;;;;;;;;;2611907;54;20379;-75
2023/11/25 03:20:34;;;;;;;6.27;3.37;;;;;;;;;;2611341;54;20399;-74
2023/11/25 03:23:00;;;;;;;12.03;5.60;;;;;;;;;;2612185;54;20977;-75
2023/11/25 03:25:27;;;;;;;11.43;4.03;;;;;;;;;;2611040;47;20403;-74
2023/11/25 03:27:57;;;;;;;3.90;1.97;;;;;;;;;;2611447;54;20398;-74
2023/11/25 03:30:23;;;;;;;11.30;4.37;;;;;;;;;;2611566;54;21059;-74
2023/11/25 03:32:49;;;;;;;16.47;5.20;;;;;;;;;;2611966;54;20494;-73
2023/11/25 03:35:16;;;;;;;15.07;4.23;;;;;;;;;;2612060;54;20428;-74
2023/11/25 03:37:42;;;;;;;13.70;4.33;;;;;;;;;;2611816;47;21040;-75
2023/11/25 03:40:13;;;;;;;21.77;7.83;;;;;;;;;;2611508;54;20418;-74
2023/11/25 03:42:40;;;;;;;10.57;4.00;;;;;;;;;;2611141;54;20938;-74
2023/11/25 03:45:07;;;;;;;9.83;4.73;;;;;;;;;;2611381;54;21258;-74
2023/11/25 03:47:33;;;;;;;13.23;3.43;;;;;;;;;;2610793;54;20427;-74
2023/11/25 03:49:59;;;;;;;15.37;5.13;;;;;;;;;;2612222;54;20391;-74
2023/11/25 03:52:25;;;;;;;28.00;5.57;;;;;;;;;;2611816;46;20427;-75
2023/11/25 03:54:53;;;;;;;18.50;5.40;;;;;;;;;;2611997;39;20883;-74
2023/11/25 03:57:21;;;;;;;12.77;4.87;;;;;;;;;;2610544;54;20404;-75
2023/11/25 03:59:47;;;;;;;15.30;4.27;;;;;;;;;;2611322;54;20403;-74
2023/11/25 04:02:13;;;;;;;18.50;3.40;;;;;;;;;;2611534;54;20414;-73
2023/11/25 04:04:39;;;;;;;16.67;6.53;;;;;;;;;;2611116;54;20401;-74
2023/11/25 04:07:05;;;;;;;10.97;5.00;;;;;;;;;;2612089;54;20965;-75
2023/11/25 04:09:32;;;;;;;21.03;4.40;;;;;;;;;;2610911;54;20375;-74
2023/11/25 04:11:58;;;;;;;15.67;4.00;;;;;;;;;;2611041;54;20383;-74
2023/11/25 04:14:25;;;;;;;13.40;4.50;;;;;;;;;;2609800;47;20439;-74
2023/11/25 04:16:52;;;;;;;11.37;5.47;;;;;;;;;;2610650;47;20410;-74
2023/11/25 04:19:18;;;;;;;16.97;4.57;;;;;;;;;;2611117;51;20412;-74
2023/11/25 04:21:47;;;;;;;14.40;3.97;;;;;;;;;;2611599;54;20398;-75
2023/11/25 04:24:13;;;;;;;13.33;4.20;;;;;;;;;;2610444;39;20883;-74
2023/11/25 04:26:40;;;;;;;10.20;4.20;;;;;;;;;;2610225;47;20428;-74
2023/11/25 04:29:06;;;;;;;16.87;7.07;;;;;;;;;;2611416;54;20382;-75
2023/11/25 04:31:32;;;;;;;15.70;4.90;;;;;;;;;;2611203;54;20476;-76
2023/11/25 04:33:59;;;;;;;8.83;4.37;;;;;;;;;;2610080;47;20908;-74
2023/11/25 04:36:25;;;;;;;9.57;3.77;;;;;;;;;;2611631;39;20906;-75
2023/11/25 04:38:53;;;;;;;18.60;6.83;;;;;;;;;;2610671;54;20523;-73
2023/11/25 04:41:19;;;;;;;12.00;5.03;;;;;;;;;;2610294;54;20960;-74
2023/11/25 04:43:45;;;;;;;11.63;6.83;;;;;;;;;;2611413;54;21495;-76
2023/11/25 04:46:11;;;;;;;20.80;6.00;;;;;;;;;;2611931;54;20419;-72
2023/11/25 04:48:37;;;;;;;11.83;3.93;;;;;;;;;;2611871;54;20410;-74
2023/11/25 04:51:04;;;;;;;12.13;3.50;;;;;;;;;;2611532;54;20430;-74
2023/11/25 04:53:30;;;;;;;18.53;5.43;;;;;;;;;;2611058;47;20860;-75
2023/11/25 04:55:56;;;;;;;17.27;5.07;;;;;;;;;;2609546;54;20403;-73
2023/11/25 04:58:22;;;;;;;9.43;4.47;;;;;;;;;;2610123;47;20431;-75
2023/11/25 05:00:48;;;;;;;6.87;3.90;;;;;;;;;;2610382;47;20410;-74
2023/11/25 05:03:15;;;;;;;8.33;4.73;;;;;;;;;;2611133;54;20862;-74
2023/11/25 05:05:41;;;;;;;12.10;4.70;;;;;;;;;;2611120;54;20475;-75
2023/11/25 05:08:07;;;;;;;16.90;4.67;;;;;;;;;;2609862;54;20411;-74
2023/11/25 05:10:33;;;;;;;15.23;4.10;;;;;;;;;;2610572;47;20568;-74
2023/11/25 05:12:59;;;;;;;7.77;3.70;;;;;;;;;;2611113;54;20380;-76
2023/11/25 05:15:25;;;;;;;16.30;4.70;;;;;;;;;;2610785;54;20416;-73
2023/11/25 05:17:53;;;;;;;19.97;4.47;;;;;;;;;;2610503;54;20518;-75
2023/11/25 05:20:19;;;;;;;20.33;5.30;;;;;;;;;;2610575;47;20424;-74
2023/11/25 05:22:45;;;;;;;17.27;5.17;;;;;;;;;;2611261;54;20378;-74
2023/11/25 05:25:13;;;;;;;18.03;4.23;;;;;;;;;;2611040;54;20586;-73
2023/11/25 05:27:39;;;;;;;15.10;4.67;;;;;;;;;;2609630;54;20382;-74
2023/11/25 05:30:06;;;;;;;15.83;4.20;;;;;;;;;;2609903;54;20409;-75
2023/11/25 05:32:32;;;;;;;13.60;5.00;;;;;;;;;;2611128;54;20406;-74
2023/11/25 05:34:58;;;;;;;12.33;3.23;;;;;;;;;;2610520;54;20538;-75
2023/11/25 05:37:25;;;;;;;18.43;5.13;;;;;;;;;;2610620;54;20392;-74
2023/11/25 05:39:51;;;;;;;11.83;3.57;;;;;;;;;;2610541;54;20916;-73
2023/11/25 05:42:27;;;;;;;15.43;4.20;;;;;;;;;;2611031;54;20435;-74
2023/11/25 05:44:53;;;;;;;11.40;4.43;;;;;;;;;;2610891;54;20362;-74
2023/11/25 05:47:21;;;;;;;17.77;4.10;;;;;;;;;;2611203;54;20398;-76
2023/11/25 05:49:47;;;;;;;16.20;4.60;;;;;;;;;;2612362;54;20379;-78
2023/11/25 05:52:14;;;;;;;19.50;3.57;;;;;;;;;;2610805;47;20394;-78
2023/11/25 05:54:41;;;;;;;16.83;4.33;;;;;;;;;;2611771;54;20418;-77
2023/11/25 05:57:07;;;;;;;10.60;3.57;;;;;;;;;;2612896;54;20392;-76
2023/11/25 05:59:33;;;;;;;18.00;4.57;;;;;;;;;;2613389;46;20450;-77
2023/11/25 06:01:59;;;;;;;19.90;5.70;;;;;;;;;;2612099;54;20394;-76
2023/11/25 06:04:26;;;;;;;10.83;3.80;;;;;;;;;;2611459;54;20983;-76
2023/11/25 06:06:53;;;;;;;11.50;4.23;;;;;;;;;;2611864;47;20410;-76
2023/11/25 06:09:19;;;;;;;6.30;2.30;;;;;;;;;;2611924;47;20952;-75
2023/11/25 06:11:50;;;;;;;11.50;3.20;;;;;;;;;;2613324;54;20396;-75
2023/11/25 06:14:19;;;;;;;12.50;3.40;;;;;;;;;;2612440;47;20445;-75
2023/11/25 06:16:46;;;;;;;12.80;3.63;;;;;;;;;;2613131;47;20502;-75
2023/11/25 06:19:13;;;;;;;9.80;3.10;;;;;;;;;;2613389;54;20933;-77
2023/11/25 06:21:39;;;;;;;17.37;5.63;;;;;;;;;;2614075;54;20413;-76
2023/11/25 06:24:06;;;;;;;10.70;3.73;;;;;;;;;;2613300;47;20402;-76
2023/11/25 06:26:32;;;;;;;16.90;3.10;;;;;;;;;;2613446;54;20433;-76
2023/11/25 06:28:59;;;;;;;14.97;5.57;;;;;;;;;;2614300;54;20425;-76
2023/11/25 06:31:26;;;;;;;9.30;3.23;;;;;;;;;;2613415;47;20441;-75
2023/11/25 06:33:52;;;;;;;14.87;3.63;;;;;;;;;;2612924;47;20434;-76
2023/11/25 06:36:20;;;;;;;11.90;4.63;;;;;;;;;;2614982;39;20756;-76
2023/11/25 06:38:46;;;;;;;7.23;2.67;;;;;;;;;;2613577;54;20992;-75
2023/11/25 06:41:13;;;;;;;9.33;2.73;;;;;;;;;;2614580;54;20474;-76
2023/11/25 06:43:40;;;;;;;6.63;3.80;;;;;;;;;;2614119;54;20423;-75
2023/11/25 06:46:06;;;;;;;13.13;3.40;;;;;;;;;;2614250;54;21042;-76
2023/11/25 06:48:33;;;;;;;10.00;2.90;;;;;;;;;;2614131;54;20420;-76
2023/11/25 06:51:00;;;;;;;9.30;3.60;;;;;;;;;;2614308;54;21012;-77
2023/11/25 06:53:26;;;;;;;11.43;3.20;;;;;;;;;;2614292;54;20527;-76
2023/11/25 06:55:52;;;;;;;18.80;2.03;;;;;;;;;;2613299;54;20415;-74
2023/11/25 06:58:19;;;;;;;17.63;2.03;;;;;;;;;;2610719;47;20991;-75
2023/11/25 07:00:45;;;;;;;10.03;3.03;;;;;;;;;;2611987;54;20405;-74
2023/11/25 07:03:14;;;;;;;16.50;2.37;;;;;;;;;;2611756;54;20406;-76
2023/11/25 07:05:41;;;;;;;7.73;2.93;;;;;;;;;;2611992;54;20399;-76
2023/11/25 07:08:07;;;;;;;10.33;2.00;;;;;;;;;;2611923;54;20554;-77
2023/11/25 07:10:34;;;;;;;5.60;2.57;;;;;;;;;;2612102;39;20815;-74
2023/11/25 07:13:05;;;;;;;6.03;2.53;;;;;;;;;;2609996;54;21391;-75
2023/11/25 07:15:31;;;;;;;1.87;1.27;;;;;;;;;;2609878;47;20469;-75
2023/11/25 07:17:57;;;;;;;7.93;2.20;;;;;;;;;;2611611;54;20495;-75
2023/11/25 07:20:24;;;;;;;4.37;1.83;;;;;;;;;;2611079;54;20394;-75
2023/11/25 07:22:50;;;;;;;6.73;2.87;;;;;;;;;;2610437;54;20403;-75
2023/11/25 07:25:18;;;;;;;4.80;2.10;;;;;;;;;;2609479;46;20413;-76
2023/11/25 07:27:45;;;;;;;9.97;3.03;;;;;;;;;;2613739;39;20886;-76
2023/11/25 07:30:11;;;;;;;13.37;4.00;;;;;;;;;;2613109;54;20545;-77
2023/11/25 07:32:37;;;;;;;20.60;3.37;;;;;;;;;;2614079;47;20447;-76
2023/11/25 07:35:07;;;;;;;8.73;3.23;;;;;;;;;;2614001;54;20470;-76
2023/11/25 07:37:35;;;;;;;5.73;3.10;;;;;;;;;;2612867;47;20462;-75
2023/11/25 07:40:03;;;;;;;11.73;3.13;;;;;;;;;;2613497;54;20427;-77
2023/11/25 07:42:29;;;;;;;11.60;3.23;;;;;;;;;;2612879;47;20399;-76
2023/11/25 07:44:55;;;;;;;11.07;3.37;;;;;;;;;;2614108;54;20423;-77
2023/11/25 07:47:22;;;;;;;8.60;4.57;;;;;;;;;;2613097;54;20431;-77
2023/11/25 07:49:48;;;;;;;15.80;5.83;;;;;;;;;;2613738;54;20423;-77
2023/11/25 07:52:15;;;;;;;14.23;4.50;;;;;;;;;;2613242;54;20486;-77
2023/11/25 07:54:43;;;;;;;14.67;5.27;;;;;;;;;;2613952;54;20427;-76
2023/11/25 07:57:09;;;;;;;14.53;5.33;;;;;;;;;;2613806;54;20443;-76
2023/11/25 07:59:38;;;;;;;19.07;5.43;;;;;;;;;;2613771;54;20425;-77
2023/11/25 08:02:04;;;;;;;21.70;4.70;;;;;;;;;;2613493;46;20446;-76
2023/11/25 08:04:30;;;;;;;11.10;4.77;;;;;;;;;;2612508;54;20419;-76
2023/11/25 08:06:56;;;;;;;6.00;3.60;;;;;;;;;;2611022;54;20858;-74
2023/11/25 08:09:23;;;;;;;10.27;3.20;;;;;;;;;;2609877;47;20443;-75
2023/11/25 08:11:50;;;;;;;11.97;4.10;;;;;;;;;;2610911;47;20436;-74
2023/11/25 08:14:17;;;;;;;22.17;3.27;;;;;;;;;;2610904;54;20407;-75
2023/11/25 08:16:43;;;;;;;11.87;3.80;;;;;;;;;;2609867;54;20958;-74
2023/11/25 08:19:10;;;;;;;8.20;3.20;;;;;;;;;;2610789;54;20402;-76
2023/11/25 08:21:36;;;;;;;6.80;2.50;;;;;;;;;;2610395;47;20431;-76
2023/11/25 08:24:02;;;;;;;4.67;2.60;;;;;;;;;;2611154;39;20903;-75
2023/11/25 08:26:29;;;;;;;12.80;3.30;;;;;;;;;;2609802;47;20458;-74
2023/11/25 08:28:55;;;;;;;9.13;3.30;;;;;;;;;;2611252;54;20558;-74
2023/11/25 08:31:23;;;;;;;11.63;3.07;;;;;;;;;;2610711;54;20466;-74
2023/11/25 08:33:49;;;;;;;10.50;3.60;;;;;;;;;;2611003;47;20538;-74
2023/11/25 08:36:17;;;;;;;10.20;4.03;;;;;;;;;;2611372;54;20399;-75
2023/11/25 08:38:44;;;;;;;10.50;4.67;;;;;;;;;;2612095;54;20483;-75
2023/11/25 08:41:10;;;;;;;9.37;2.67;;;;;;;;;;2611719;54;20422;-73
2023/11/25 08:43:43;;;;;;;8.53;3.87;;;;;;;;;;2611259;39;20494;-75
2023/11/25 08:46:39;;;;;;;2.20;1.70;;;;;;;;;;2611899;46;20868;-78
2023/11/25 08:49:06;;;;;;;7.00;2.57;;;;;;;;;;2613462;47;20516;-77
2023/11/25 08:51:32;;;;;;;7.03;2.90;;;;;;;;;;2613692;39;20802;-76
2023/11/25 08:54:00;;;;;;;10.13;4.73;;;;;;;;;;2613658;54;20398;-77
2023/11/25 08:56:31;;;;;;;5.83;2.87;;;;;;;;;;2613533;54;20530;-77
2023/11/25 08:59:10;;;;;;;8.37;2.80;;;;;;;;;;2613366;54;20415;-76
2023/11/25 09:01:39;;;;;;;2.83;2.27;;;;;;;;;;2613139;54;20403;-76
2023/11/25 09:04:10;;;;;;;5.80;1.93;;;;;;;;;;2613312;54;20428;-78
2023/11/25 09:06:37;;;;;;;4.13;2.30;;;;;;;;;;2613159;54;20402;-77
2023/11/25 09:09:09;;;;;;;2.53;1.20;;;;;;;;;;2613192;54;20417;-77
2023/11/25 09:11:36;;;;;;;5.10;1.20;;;;;;;;;;2612819;47;20430;-76
2023/11/25 09:14:11;;;;;;;7.23;1.80;;;;;;;;;;2612611;47;20416;-76
2023/11/25 09:16:37;;;;;;;6.30;2.13;;;;;;;;;;2611349;49;20448;-74
2023/11/25 09:19:04;;;;;;;4.93;3.00;;;;;;;;;;2609506;54;20922;-74
2023/11/25 09:21:30;;;;;;;10.43;2.53;;;;;;;;;;2609970;39;20840;-75
2023/11/25 09:23:56;;;;;;;5.30;2.93;;;;;;;;;;2609719;54;20455;-74
2023/11/25 09:26:25;;;;;;;2.80;1.87;;;;;;;;;;2610816;54;20399;-75
2023/11/25 09:28:52;;;;;;;2.77;2.00;;;;;;;;;;2610976;54;20400;-74
2023/11/25 09:31:19;;;;;;;9.83;2.70;;;;;;;;;;2610311;54;20455;-74
2023/11/25 09:33:45;;;;;;;15.00;4.30;;;;;;;;;;2611231;54;20388;-75
2023/11/25 09:36:12;;;;;;;4.50;1.60;;;;;;;;;;2611944;54;20387;-75
2023/11/25 09:38:38;;;;;;;1.87;1.30;;;;;;;;;;2610908;54;20398;-74
2023/11/25 09:41:05;;;;;;;5.67;2.67;;;;;;;;;;2610621;54;20419;-75
2023/11/25 09:43:31;;;;;;;10.27;2.40;;;;;;;;;;2610239;47;20404;-74
2023/11/25 09:45:58;;;;;;;4.27;2.10;;;;;;;;;;2611407;54;20378;-74
2023/11/25 09:48:24;;;;;;;5.43;2.10;;;;;;;;;;2610631;54;21330;-75
2023/11/25 09:50:51;;;;;;;7.20;3.50;;;;;;;;;;2610358;54;20425;-79
2023/11/25 09:53:22;;;;;;;6.33;2.70;;;;;;;;;;2610125;39;20766;-74
2023/11/25 09:55:56;;;;;;;11.20;2.80;;;;;;;;;;2610765;54;20401;-74
2023/11/25 09:58:23;;;;;;;7.63;2.80;;;;;;;;;;2610266;54;21128;-75
2023/11/25 10:00:50;;;;;;;13.03;3.20;;;;;;;;;;2610987;39;20817;-74
2023/11/25 10:03:17;;;;;;;3.90;2.70;;;;;;;;;;2610807;54;20979;-74
2023/11/25 10:05:43;;;;;;;10.47;4.50;;;;;;;;;;2611080;54;20402;-75
2023/11/25 10:08:09;;;;;;;7.57;3.57;;;;;;;;;;2610826;54;20435;-73
2023/11/25 10:10:35;;;;;;;9.57;3.53;;;;;;;;;;2610402;51;20413;-74
2023/11/25 10:13:03;;;;;;;7.90;3.07;;;;;;;;;;2610005;46;20410;-73
2023/11/25 10:15:29;;;;;;;5.07;3.10;;;;;;;;;;2611402;54;21005;-74
2023/11/25 10:17:55;;;;;;;9.73;2.90;;;;;;;;;;2611633;54;20394;-73
2023/11/25 10:20:22;;;;;;;6.63;3.80;;;;;;;;;;2611374;54;20414;-74
2023/11/25 10:22:49;;;;;;;21.80;4.40;;;;;;;;;;2610519;54;20416;-74
2023/11/25 10:25:19;;;;;;;8.03;3.30;;;;;;;;;;2610925;54;20411;-74
2023/11/25 10:27:45;;;;;;;9.97;3.23;;;;;;;;;;2613211;54;20550;-75
2023/11/25 10:30:15;;;;;;;6.87;3.50;;;;;;;;;;2613355;47;20404;-77
2023/11/25 10:32:42;;;;;;;8.10;3.00;;;;;;;;;;2612928;54;20562;-77
2023/11/25 10:35:09;;;;;;;5.27;2.73;;;;;;;;;;2612863;54;20431;-78
2023/11/25 10:37:38;;;;;;;8.10;2.73;;;;;;;;;;2611566;47;21080;-78
2023/11/25 10:40:05;;;;;;;5.47;2.70;;;;;;;;;;2613610;54;20542;-78
2023/11/25 10:42:32;;;;;;;7.10;2.83;;;;;;;;;;2614010;46;20989;-75
2023/11/25 10:44:58;;;;;;;7.77;3.03;;;;;;;;;;2614298;54;20443;-77
2023/11/25 10:47:33;;;;;;;8.20;3.27;;;;;;;;;;2613496;54;20423;-77
2023/11/25 10:50:04;;;;;;;8.80;2.83;;;;;;;;;;2612857;54;20969;-77
2023/11/25 10:52:38;;;;;;;6.30;2.97;;;;;;;;;;2613196;39;20795;-76
2023/11/25 10:55:05;;;;;;;7.60;2.97;;;;;;;;;;2612065;50;20426;-77
2023/11/25 10:57:32;;;;;;;6.93;2.70;;;;;;;;;;2614442;39;20941;-78
2023/11/25 11:00:00;;;;;;;8.10;2.40;;;;;;;;;;2613999;54;20915;-76
2023/11/25 11:02:28;;;;;;;6.03;2.53;;;;;;;;;;2612586;54;20413;-77
2023/11/25 11:04:58;;;;;;;8.57;3.40;;;;;;;;;;2614170;54;20408;-85
2023/11/25 11:07:25;;;;;;;6.20;1.70;;;;;;;;;;2614894;54;20523;-78
2023/11/25 11:09:53;;;;;;;8.03;3.20;;;;;;;;;;2613899;39;20797;-77
2023/11/25 11:12:23;;;;;;;4.77;2.47;;;;;;;;;;2613956;54;20508;-78
2023/11/25 11:14:57;;;;;;;12.13;2.10;;;;;;;;;;2613403;54;20427;-78
2023/11/25 11:17:46;;;;;;;4.33;2.33;;;;;;;;;;2614022;54;20430;-78
2023/11/25 11:20:13;;;;;;;8.30;2.30;;;;;;;;;;2615024;54;20428;-78
2023/11/25 11:22:42;;;;;;;9.77;2.87;;;;;;;;;;2613927;47;20435;-77
2023/11/25 11:25:15;;;;;;;5.97;2.37;;;;;;;;;;2613987;54;20391;-78
2023/11/25 11:27:41;;;;;;;12.20;3.33;;;;;;;;;;2614718;54;20552;-77
2023/11/25 11:30:30;;;;;;;10.83;2.90;;;;;;;;;;2614103;47;20420;-79
2023/11/25 11:32:56;;;;;;;6.10;3.30;;;;;;;;;;2614152;54;20652;-77
2023/11/25 11:35:33;;;;;;;7.93;3.17;;;;;;;;;;2613553;47;20410;-75
2023/11/25 11:37:59;;;;;;;3.70;2.10;;;;;;;;;;2612245;54;20375;-73
2023/11/25 11:40:25;;;;;;;6.30;2.73;;;;;;;;;;2611786;54;20407;-75
2023/11/25 11:42:56;;;;;;;5.40;2.50;;;;;;;;;;2611840;54;20427;-74
2023/11/25 11:45:26;;;;;;;6.80;2.07;;;;;;;;;;2611571;54;20388;-75
2023/11/25 11:47:52;;;;;;;3.87;2.30;;;;;;;;;;2611818;54;20942;-74
2023/11/25 11:50:25;;;;;;;5.60;2.43;;;;;;;;;;2611727;39;20793;-73
2023/11/25 11:53:00;;;;;;;4.80;2.70;;;;;;;;;;2611284;47;20432;-74
2023/11/25 11:55:33;;;;;;;4.30;2.27;;;;;;;;;;2611584;54;20422;-75
2023/11/25 11:58:05;;;;;;;5.67;1.57;;;;;;;;;;2612415;39;20849;-73
2023/11/25 12:00:36;;;;;;;2.80;1.27;;;;;;;;;;2611425;47;20429;-74
2023/11/25 12:03:02;;;;;;;5.27;2.00;;;;;;;;;;2611958;54;20429;-74
2023/11/25 12:05:28;;;;;;;4.80;1.90;;;;;;;;;;2611989;54;21332;-73
2023/11/25 12:07:54;;;;;;;3.83;2.60;;;;;;;;;;2610901;47;20427;-74
2023/11/25 12:10:22;;;;;;;12.70;3.70;;;;;;;;;;2611166;54;21030;-74
2023/11/25 12:12:49;;;;;;;6.23;2.10;;;;;;;;;;2610952;39;21229;-74
2023/11/25 12:15:17;;;;;;;3.20;1.73;;;;;;;;;;2611946;54;20420;-75
2023/11/25 12:17:44;;;;;;;6.03;1.80;;;;;;;;;;2611490;54;20420;-74
2023/11/25 12:20:10;;;;;;;5.10;2.23;;;;;;;;;;2612743;54;20409;-75
2023/11/25 12:22:37;;;;;;;4.30;2.30;;;;;;;;;;2611789;54;20424;-75
2023/11/25 12:25:03;;;;;;;3.63;1.40;;;;;;;;;;2611833;54;20426;-75
2023/11/25 12:27:31;;;;;;;3.67;1.53;;;;;;;;;;2612086;54;20449;-74
2023/11/25 12:29:58;;;;;;;3.77;2.03;;;;;;;;;;2611887;54;20408;-79
2023/11/25 12:32:24;;;;;;;3.20;1.80;;;;;;;;;;2611964;54;20464;-79
2023/11/25 12:34:50;;;;;;;8.50;3.00;;;;;;;;;;2611058;54;20423;-74
2023/11/25 12:37:16;;;;;;;3.77;1.20;;;;;;;;;;2611035;46;20402;-75
2023/11/25 12:39:43;;;;;;;3.93;1.87;;;;;;;;;;2611143;54;20404;-75
2023/11/25 12:42:10;;;;;;;4.37;2.27;;;;;;;;;;2610300;54;20405;-75
2023/11/25 12:44:50;;;;;;;4.90;2.20;;;;;;;;;;2611345;39;21084;-75
2023/11/25 12:47:16;;;;;;;4.70;1.83;;;;;;;;;;2610803;54;20387;-76
2023/11/25 12:49:44;;;;;;;3.33;1.50;;;;;;;;;;2610890;54;20460;-76
2023/11/25 12:52:21;;;;;;;6.23;2.00;;;;;;;;;;2610598;47;20995;-74
2023/11/25 12:54:49;;;;;;;3.23;2.43;;;;;;;;;;2610969;54;20394;-75
2023/11/25 12:57:15;;;;;;;5.77;2.23;;;;;;;;;;2610411;47;20471;-75
2023/11/25 12:59:42;;;;;;;6.00;2.23;;;;;;;;;;2612053;39;20479;-75
2023/11/25 13:02:11;;;;;;;2.90;2.20;;;;;;;;;;2610673;54;20981;-74
2023/11/25 13:04:47;;;;;;;4.60;2.63;;;;;;;;;;2611519;31;20841;-74
2023/11/25 13:07:35;;;;;;;3.43;2.33;;;;;;;;;;2611530;54;20402;-74
2023/11/25 13:10:03;;;;;;;13.53;2.67;;;;;;;;;;2611104;54;20469;-75
2023/11/25 13:12:30;;;;;;;11.07;4.27;;;;;;;;;;2611172;54;20951;-75
2023/11/25 13:14:57;;;;;;;5.30;3.07;;;;;;;;;;2610460;47;20520;-75
2023/11/25 13:17:23;;;;;;;13.43;4.17;;;;;;;;;;2610672;39;20790;-74
2023/11/25 13:19:50;;;;;;;7.50;3.50;;;;;;;;;;2610612;39;20760;-75
2023/11/25 13:22:16;;;;;;;10.63;2.90;;;;;;;;;;2611207;54;20504;-74
2023/11/25 13:24:46;;;;;;;6.27;2.33;;;;;;;;;;2611066;54;20440;-73
2023/11/25 13:27:12;;;;;;;10.47;2.70;;;;;;;;;;2610504;50;20554;-74
2023/11/25 13:29:38;;;;;;;5.40;3.00;;;;;;;;;;2610914;39;20755;-74
2023/11/25 13:32:05;;;;;;;6.67;2.57;;;;;;;;;;2610114;47;20439;-74
2023/11/25 13:34:31;;;;;;;7.77;2.57;;;;;;;;;;2610361;47;20435;-74
2023/11/25 13:36:58;;;;;;;5.23;3.40;;;;;;;;;;2610382;54;20426;-74
2023/11/25 13:39:27;;;;;;;10.27;3.77;;;;;;;;;;2611200;54;20954;-73
2023/11/25 13:41:54;;;;;;;6.73;3.03;;;;;;;;;;2611159;54;20412;-74
2023/11/25 13:44:19;;;;;;;13.73;2.77;;;;;;;;;;2610309;54;20575;-74
2023/11/25 13:46:46;;;;;;;13.37;3.87;;;;;;;;;;2611513;54;20375;-75
2023/11/25 13:49:12;;;;;;;4.53;2.40;;;;;;;;;;2611286;54;20941;-74
2023/11/25 13:51:38;;;;;;;16.30;3.73;;;;;;;;;;2611619;54;20422;-74
2023/11/25 13:54:05;;;;;;;11.63;3.50;;;;;;;;;;2609970;46;20455;-74
2023/11/25 13:56:31;;;;;;;8.90;3.47;;;;;;;;;;2610419;47;20410;-74
2023/11/25 13:58:57;;;;;;;7.43;2.90;;;;;;;;;;2611149;54;20388;-74
2023/11/25 14:01:24;;;;;;;6.53;3.10;;;;;;;;;;2611604;54;20452;-75
2023/11/25 14:03:55;;;;;;;4.33;2.30;;;;;;;;;;2611874;54;20418;-74
2023/11/25 14:06:28;;;;;;;7.63;2.90;;;;;;;;;;2611489;54;20397;-74
2023/11/25 14:08:54;;;;;;;12.33;3.00;;;;;;;;;;2613263;47;20420;-76
2023/11/25 14:11:23;;;;;;;6.80;2.50;;;;;;;;;;2614011;54;20415;-76
2023/11/25 14:13:51;;;;;;;13.00;2.50;;;;;;;;;;2613914;54;20997;-75
2023/11/25 14:16:18;;;;;;;5.73;2.00;;;;;;;;;;2614769;54;20441;-76
2023/11/25 14:18:44;;;;;;;6.50;2.80;;;;;;;;;;2614827;54;20422;-76
2023/11/25 14:21:10;;;;;;;3.80;2.20;;;;;;;;;;2614159;47;20421;-77
2023/11/25 14:23:36;;;;;;;7.37;3.37;;;;;;;;;;2614121;54;21357;-78
2023/11/25 14:26:04;;;;;;;4.60;2.83;;;;;;;;;;2614016;50;20447;-77
2023/11/25 14:28:31;;;;;;;8.70;2.30;;;;;;;;;;2614341;54;20417;-77
2023/11/25 14:30:57;;;;;;;4.27;1.80;;;;;;;;;;2615022;54;20478;-75
2023/11/25 14:33:23;;;;;;;3.57;1.40;;;;;;;;;;2614640;54;20455;-77
2023/11/25 14:35:49;;;;;;;3.60;2.07;;;;;;;;;;2614501;54;20435;-76
2023/11/25 14:38:15;;;;;;;6.40;2.27;;;;;;;;;;2612425;54;20368;-74
2023/11/25 14:40:42;;;;;;;4.03;2.50;;;;;;;;;;2613257;39;20873;-74